createdAt,value
2022-11-08T00:00:40.962Z,10.40
2022-11-08T00:03:10.546Z,5.60
2022-11-08T00:05:56.287Z,9.33
2022-11-08T00:08:42.034Z,5.27
2022-11-08T00:11:27.688Z,6.70
2022-11-08T00:14:01.340Z,7.90
2022-11-08T00:16:29.966Z,4.30
2022-11-08T00:18:59.414Z,10.87
2022-11-08T00:21:27.930Z,5.37
2022-11-08T00:23:56.054Z,6.03
2022-11-08T00:26:24.126Z,6.03
2022-11-08T00:28:52.514Z,5.40
2022-11-08T00:31:20.683Z,6.87
2022-11-08T00:33:48.697Z,4.57
2022-11-08T00:36:18.160Z,3.43
2022-11-08T00:38:46.293Z,4.40
2022-11-08T00:41:14.431Z,6.43
2022-11-08T00:43:42.894Z,6.93
2022-11-08T00:46:10.967Z,5.30
2022-11-08T00:48:39.262Z,6.00
2022-11-08T00:51:09.213Z,4.20
2022-11-08T00:53:40.141Z,7.80
2022-11-08T00:56:09.855Z,7.03
2022-11-08T00:58:37.936Z,10.43
2022-11-08T01:01:11.051Z,4.70
2022-11-08T01:03:39.538Z,6.17
2022-11-08T01:06:11.278Z,11.33
2022-11-08T01:08:41.249Z,5.50
2022-11-08T01:11:13.021Z,3.97
2022-11-08T01:13:41.777Z,6.10
2022-11-08T01:16:12.015Z,11.93
2022-11-08T01:18:40.840Z,5.40
2022-11-08T01:21:09.464Z,8.27
2022-11-08T01:23:37.642Z,6.90
2022-11-08T01:26:08.866Z,5.00
2022-11-08T01:28:37.345Z,8.40
2022-11-08T01:31:07.573Z,6.60
2022-11-08T01:33:35.944Z,5.13
2022-11-08T01:36:04.124Z,6.57
2022-11-08T01:38:32.218Z,10.63
2022-11-08T01:41:00.700Z,5.37
2022-11-08T01:43:38.668Z,4.73
2022-11-08T01:46:38.321Z,10.90
2022-11-08T01:49:41.453Z,6.70
2022-11-08T01:52:25.899Z,3.50
2022-11-08T01:55:12.954Z,8.53
2022-11-08T01:57:47.712Z,4.70
2022-11-08T02:00:17.687Z,6.63
2022-11-08T02:02:51.113Z,9.30
2022-11-08T02:05:26.535Z,4.23
2022-11-08T02:07:59.188Z,5.57
2022-11-08T02:10:34.522Z,5.63
2022-11-08T02:13:05.486Z,8.80
2022-11-08T02:15:36.716Z,5.20
2022-11-08T02:18:05.057Z,3.80
2022-11-08T02:20:34.101Z,7.60
2022-11-08T02:23:10.980Z,5.30
2022-11-08T02:25:40.516Z,5.40
2022-11-08T02:28:08.771Z,5.33
2022-11-08T02:30:38.428Z,15.30
2022-11-08T02:33:16.573Z,10.50
2022-11-08T02:35:47.676Z,10.73
2022-11-08T02:38:16.190Z,4.73
2022-11-08T02:40:50.207Z,3.93
2022-11-08T02:43:18.536Z,4.83
2022-11-08T02:45:47.144Z,12.63
2022-11-08T02:48:17.756Z,6.47
2022-11-08T02:50:46.120Z,10.70
2022-11-08T02:53:14.719Z,7.63
2022-11-08T02:55:42.912Z,9.03
2022-11-08T02:58:13.330Z,4.73
2022-11-08T03:00:42.024Z,10.23
2022-11-08T03:03:10.130Z,5.47
2022-11-08T03:05:38.238Z,5.93
2022-11-08T03:08:06.734Z,5.47
2022-11-08T03:10:34.777Z,6.70
2022-11-08T03:13:04.465Z,6.53
2022-11-08T03:15:34.702Z,4.00
2022-11-08T03:18:03.306Z,4.93
2022-11-08T03:20:33.134Z,4.93
2022-11-08T03:23:03.308Z,4.53
2022-11-08T03:25:31.597Z,11.10
2022-11-08T03:28:02.954Z,10.20
2022-11-08T03:30:31.426Z,10.00
2022-11-08T03:33:00.990Z,8.43
2022-11-08T03:35:29.372Z,4.73
2022-11-08T03:37:59.059Z,6.17
2022-11-08T03:40:28.242Z,4.23
2022-11-08T03:42:58.091Z,5.97
2022-11-08T03:45:26.367Z,4.53
2022-11-08T03:47:54.816Z,8.03
2022-11-08T03:50:24.431Z,3.90
2022-11-08T03:52:55.239Z,8.03
2022-11-08T03:55:25.171Z,8.03
2022-11-08T03:57:54.003Z,10.20
2022-11-08T04:00:24.095Z,5.80
2022-11-08T04:02:52.356Z,8.20
2022-11-08T04:05:21.691Z,5.10
2022-11-08T04:07:51.749Z,4.70
2022-11-08T04:10:20.029Z,6.00
2022-11-08T04:13:05.418Z,3.83
2022-11-08T04:15:33.521Z,4.07
2022-11-08T04:18:19.257Z,4.27
2022-11-08T04:21:06.884Z,5.50
2022-11-08T04:23:37.902Z,4.90
2022-11-08T04:26:07.874Z,3.87
2022-11-08T04:28:38.685Z,7.63
2022-11-08T04:31:08.470Z,6.77
2022-11-08T04:33:36.616Z,7.30
2022-11-08T04:36:07.391Z,5.03
2022-11-08T04:38:36.972Z,4.20
2022-11-08T04:41:07.139Z,8.57
2022-11-08T04:43:36.196Z,6.23
2022-11-08T04:46:06.306Z,7.23
2022-11-08T04:48:34.866Z,7.97
2022-11-08T04:51:04.394Z,6.83
2022-11-08T04:53:32.933Z,5.57
2022-11-08T04:56:04.551Z,12.63
2022-11-08T04:58:35.679Z,12.60
2022-11-08T05:01:05.011Z,4.30
2022-11-08T05:03:33.258Z,4.17
2022-11-08T05:06:05.342Z,8.30
2022-11-08T05:08:33.968Z,5.60
2022-11-08T05:11:05.255Z,27.03
2022-11-08T05:13:33.754Z,78.93
2022-11-08T05:16:03.438Z,32.67
2022-11-08T05:18:32.172Z,18.47
2022-11-08T05:21:19.689Z,17.83
2022-11-08T05:23:49.877Z,11.87
2022-11-08T05:26:20.804Z,10.70
2022-11-08T05:28:49.446Z,8.43
2022-11-08T05:31:17.763Z,8.30
2022-11-08T05:33:46.124Z,12.37
2022-11-08T05:36:17.020Z,8.10
2022-11-08T05:38:45.164Z,9.13
2022-11-08T05:41:15.802Z,6.03
2022-11-08T05:43:47.655Z,8.63
2022-11-08T05:46:16.418Z,5.57
2022-11-08T05:48:45.271Z,4.80
2022-11-08T05:51:13.915Z,6.60
2022-11-08T05:53:43.441Z,9.40
2022-11-08T05:56:11.736Z,4.30
2022-11-08T05:58:39.814Z,8.20
2022-11-08T06:01:12.292Z,4.30
2022-11-08T06:03:41.766Z,4.83
2022-11-08T06:06:12.013Z,4.00
2022-11-08T06:08:40.598Z,7.30
2022-11-08T06:11:11.047Z,11.40
2022-11-08T06:13:40.549Z,12.77
2022-11-08T06:16:12.410Z,9.50
2022-11-08T06:18:41.500Z,25.63
2022-11-08T06:21:13.239Z,10.80
2022-11-08T06:23:42.076Z,10.47
2022-11-08T06:26:10.508Z,10.97
2022-11-08T06:28:38.899Z,12.17
2022-11-08T06:31:07.227Z,19.83
2022-11-08T06:33:36.911Z,8.70
2022-11-08T06:36:05.540Z,4.20
2022-11-08T06:38:33.708Z,8.80
2022-11-08T06:41:02.552Z,9.70
2022-11-08T06:43:30.921Z,5.60
2022-11-08T06:46:01.775Z,8.80
2022-11-08T06:48:35.550Z,8.63
2022-11-08T06:51:05.890Z,9.37
2022-11-08T06:53:34.268Z,7.10
2022-11-08T06:56:02.724Z,6.17
2022-11-08T06:58:31.959Z,4.60
2022-11-08T07:01:03.673Z,16.47
2022-11-08T07:03:31.855Z,16.23
2022-11-08T07:06:01.996Z,14.83
2022-11-08T07:08:31.712Z,15.87
2022-11-08T07:10:59.983Z,20.13
2022-11-08T07:13:28.265Z,21.07
2022-11-08T07:15:59.036Z,21.30
2022-11-08T07:18:27.929Z,13.30
2022-11-08T07:20:59.976Z,19.97
2022-11-08T07:23:28.271Z,15.40
2022-11-08T07:25:57.815Z,17.93
2022-11-08T07:28:25.863Z,33.83
2022-11-08T07:31:00.114Z,13.23
2022-11-08T07:33:28.440Z,10.13
2022-11-08T07:35:57.411Z,23.43
2022-11-08T07:38:26.361Z,12.20
2022-11-08T07:40:59.186Z,16.97
2022-11-08T07:43:28.801Z,18.57
2022-11-08T07:45:57.958Z,25.47
2022-11-08T07:48:26.613Z,176.10
2022-11-08T07:50:55.055Z,152.73
2022-11-08T07:53:23.644Z,25.80
2022-11-08T07:55:52.300Z,13.70
2022-11-08T07:58:22.047Z,24.43
2022-11-08T08:00:50.335Z,26.17
2022-11-08T08:03:18.933Z,172.03
2022-11-08T08:05:56.782Z,91.77
2022-11-08T08:08:28.987Z,23.67
2022-11-08T08:10:59.298Z,64.43
2022-11-08T08:13:29.188Z,82.67
2022-11-08T08:16:00.354Z,118.83
2022-11-08T08:18:28.632Z,181.53
2022-11-08T08:20:56.726Z,294.17
2022-11-08T08:23:24.790Z,53.23
2022-11-08T08:25:52.918Z,57.47
2022-11-08T08:28:20.968Z,100.70
2022-11-08T08:30:50.398Z,50.70
2022-11-08T08:33:34.979Z,17.17
2022-11-08T08:36:03.246Z,9.80
2022-11-08T08:38:31.872Z,65.77
2022-11-08T08:41:00.028Z,21.47
2022-11-08T08:43:28.949Z,17.70
2022-11-08T08:46:00.765Z,36.40
2022-11-08T08:48:28.911Z,47.03
2022-11-08T08:50:57.125Z,39.30
2022-11-08T08:53:25.310Z,25.13
2022-11-08T08:55:53.425Z,16.73
2022-11-08T08:58:21.991Z,18.30
2022-11-08T09:03:39.783Z,17.53
2022-11-08T09:06:08.083Z,13.70
2022-11-08T09:08:36.458Z,15.70
2022-11-08T09:11:04.783Z,18.97
2022-11-08T09:13:33.613Z,16.03
2022-11-08T09:16:03.680Z,16.20
2022-11-08T09:18:32.574Z,16.13
2022-11-08T09:21:04.508Z,15.07
2022-11-08T09:23:33.107Z,16.07
2022-11-08T09:26:02.826Z,12.13
2022-11-08T09:28:32.489Z,15.63
2022-11-08T09:31:02.923Z,14.07
2022-11-08T09:33:31.154Z,9.73
2022-11-08T09:36:01.805Z,14.17
2022-11-08T09:38:30.387Z,9.47
2022-11-08T09:41:15.069Z,8.83
2022-11-08T09:43:58.749Z,9.30
2022-11-08T09:46:33.344Z,14.30
2022-11-08T09:49:04.341Z,8.90
2022-11-08T09:51:37.158Z,21.93
2022-11-08T09:54:08.955Z,12.03
2022-11-08T09:56:39.133Z,12.23
2022-11-08T09:59:26.737Z,13.13
2022-11-08T10:01:54.851Z,12.20
2022-11-08T10:04:27.076Z,10.70
2022-11-08T10:07:09.959Z,7.87
2022-11-08T10:09:59.960Z,8.40
2022-11-08T10:12:40.596Z,8.70
2022-11-08T10:15:20.645Z,10.47
2022-11-08T10:18:05.290Z,7.43
2022-11-08T10:20:46.919Z,8.57
2022-11-08T10:23:22.717Z,7.30
2022-11-08T10:25:55.749Z,7.07
2022-11-08T10:28:30.439Z,8.37
2022-11-08T10:30:58.807Z,8.50
2022-11-08T10:33:32.080Z,7.90
2022-11-08T10:36:03.278Z,11.43
2022-11-08T10:38:41.016Z,9.90
2022-11-08T10:41:17.036Z,11.80
2022-11-08T10:43:50.571Z,9.40
2022-11-08T10:46:35.983Z,6.23
2022-11-08T10:49:14.150Z,5.67
2022-11-08T10:51:42.492Z,5.97
2022-11-08T10:54:44.878Z,6.60
2022-11-08T10:57:14.783Z,8.83
2022-11-08T10:59:44.055Z,6.70
2022-11-08T11:02:22.723Z,9.77
2022-11-08T11:04:51.228Z,5.17
2022-11-08T11:07:37.371Z,7.63
2022-11-08T11:10:24.773Z,10.60
2022-11-08T11:13:01.168Z,32.97
2022-11-08T11:15:33.874Z,5.80
2022-11-08T11:18:02.152Z,14.23
2022-11-08T11:20:31.314Z,39.30
2022-11-08T11:23:00.884Z,7.63
2022-11-08T11:25:30.463Z,14.47
2022-11-08T11:28:00.681Z,5.80
2022-11-08T11:30:32.140Z,5.07
2022-11-08T11:33:03.662Z,11.97
2022-11-08T11:35:45.259Z,9.37
2022-11-08T11:38:23.700Z,9.30
2022-11-08T11:40:56.896Z,5.60
2022-11-08T11:43:31.040Z,11.50
2022-11-08T11:46:05.112Z,18.00
2022-11-08T11:48:38.174Z,8.83
2022-11-08T11:51:06.583Z,6.07
2022-11-08T11:53:39.334Z,7.10
2022-11-08T11:56:31.760Z,6.43
2022-11-08T11:59:18.277Z,5.20
2022-11-08T12:02:01.303Z,10.53
2022-11-08T12:05:01.872Z,7.27
2022-11-08T12:07:33.093Z,5.67
2022-11-08T12:10:17.483Z,7.87
2022-11-08T12:12:59.899Z,21.47
2022-11-08T12:15:39.631Z,10.63
2022-11-08T12:18:42.875Z,8.03
2022-11-08T12:21:15.084Z,6.83
2022-11-08T12:24:06.073Z,7.70
2022-11-08T12:26:41.683Z,6.33
2022-11-08T12:29:24.739Z,5.63
2022-11-08T12:32:15.348Z,5.33
2022-11-08T12:34:55.574Z,5.70
2022-11-08T12:37:38.199Z,9.83
2022-11-08T12:40:20.327Z,6.40
2022-11-08T12:43:11.095Z,10.87
2022-11-08T12:46:16.557Z,11.10
2022-11-08T12:49:12.419Z,8.43
2022-11-08T12:51:52.565Z,5.93
2022-11-08T12:54:27.987Z,8.93
2022-11-08T12:57:01.101Z,5.60
2022-11-08T12:59:33.875Z,6.90
2022-11-08T13:02:04.937Z,5.50
2022-11-08T13:04:45.224Z,11.80
2022-11-08T13:07:23.486Z,15.07
2022-11-08T13:09:56.879Z,5.60
2022-11-08T13:12:36.201Z,5.77
2022-11-08T13:15:05.056Z,5.03
2022-11-08T13:17:34.599Z,11.23
2022-11-08T13:20:07.242Z,7.27
2022-11-08T13:23:00.543Z,5.37
2022-11-08T13:25:45.155Z,7.40
2022-11-08T13:28:35.436Z,13.13
2022-11-08T13:31:10.617Z,6.17
2022-11-08T13:33:44.949Z,5.73
2022-11-08T13:36:27.228Z,5.77
2022-11-08T13:39:03.988Z,8.77
2022-11-08T13:41:32.107Z,7.00
2022-11-08T13:44:00.491Z,5.30
2022-11-08T13:46:48.982Z,8.93
2022-11-08T13:49:27.545Z,12.13
2022-11-08T13:52:34.044Z,7.60
2022-11-08T13:55:02.517Z,7.90
2022-11-08T13:57:56.856Z,13.73
2022-11-08T14:00:44.437Z,9.23
2022-11-08T14:03:47.783Z,14.80
2022-11-08T14:06:26.086Z,8.07
2022-11-08T14:09:02.885Z,9.33
2022-11-08T14:11:45.962Z,35.40
2022-11-08T14:14:26.212Z,17.23
2022-11-08T14:17:08.460Z,15.00
2022-11-08T14:19:38.970Z,12.03
2022-11-08T14:22:16.189Z,11.63
2022-11-08T14:24:45.084Z,11.50
2022-11-08T14:27:14.983Z,11.33
2022-11-08T14:29:43.599Z,10.93
2022-11-08T14:32:20.475Z,10.13
2022-11-08T14:34:48.940Z,22.83
2022-11-08T14:37:25.057Z,77.20
2022-11-08T14:39:54.747Z,16.13
2022-11-08T14:42:24.787Z,12.20
2022-11-08T14:44:55.233Z,7.20
2022-11-08T14:47:28.813Z,17.67
2022-11-08T14:49:57.088Z,16.93
2022-11-08T14:52:29.568Z,12.33
2022-11-08T14:55:06.429Z,10.00
2022-11-08T14:57:37.390Z,19.83
2022-11-08T15:00:15.417Z,20.33
2022-11-08T15:02:47.037Z,11.73
2022-11-08T15:05:33.664Z,14.47
2022-11-08T15:08:05.808Z,15.50
2022-11-08T15:10:34.124Z,13.80
2022-11-08T15:13:02.844Z,16.77
2022-11-08T15:15:34.306Z,11.57
2022-11-08T15:18:16.015Z,15.60
2022-11-08T15:20:55.677Z,42.80
2022-11-08T15:23:28.184Z,48.60
2022-11-08T15:25:58.472Z,41.73
2022-11-08T15:28:33.125Z,41.27
2022-11-08T15:31:03.758Z,24.67
2022-11-08T15:33:36.432Z,21.17
2022-11-08T15:36:12.631Z,20.73
2022-11-08T15:38:43.720Z,25.40
2022-11-08T15:41:34.126Z,29.17
2022-11-08T15:44:22.018Z,33.17
2022-11-08T15:46:51.674Z,36.50
2022-11-08T15:49:22.165Z,34.93
2022-11-08T15:51:51.557Z,85.37
2022-11-08T15:54:22.516Z,47.67
2022-11-08T15:56:53.104Z,56.57
2022-11-08T15:59:26.017Z,47.17
2022-11-08T16:01:57.663Z,45.30
2022-11-08T16:04:26.115Z,49.40
2022-11-08T16:06:54.223Z,39.60
2022-11-08T16:09:23.761Z,27.37
2022-11-08T16:14:57.912Z,19.37
2022-11-08T16:17:26.052Z,24.93
2022-11-08T16:19:54.205Z,39.87
2022-11-08T16:22:22.394Z,24.53
2022-11-08T16:24:52.060Z,23.33
2022-11-08T16:27:20.587Z,22.77
2022-11-08T16:29:48.735Z,17.70
2022-11-08T16:32:16.779Z,17.13
2022-11-08T16:34:45.040Z,17.37
2022-11-08T16:37:13.499Z,20.00
2022-11-08T16:39:42.080Z,27.83
2022-11-08T16:42:13.373Z,21.40
2022-11-08T16:44:41.474Z,23.13
2022-11-08T16:47:19.225Z,19.67
2022-11-08T16:49:51.280Z,27.50
2022-11-08T16:52:19.646Z,23.03
2022-11-08T16:54:47.746Z,25.47
2022-11-08T17:00:06.480Z,23.20
2022-11-08T17:02:36.813Z,20.80
2022-11-08T17:05:05.283Z,31.37
2022-11-08T17:07:33.631Z,29.70
2022-11-08T17:10:01.913Z,21.57
2022-11-08T17:12:31.475Z,19.80
2022-11-08T17:14:59.742Z,22.23
2022-11-08T17:17:27.870Z,14.60
2022-11-08T17:19:57.260Z,17.53
2022-11-08T17:22:25.304Z,24.97
2022-11-08T17:24:53.390Z,13.53
2022-11-08T17:27:21.657Z,16.93
2022-11-08T17:29:51.224Z,16.77
2022-11-08T17:32:19.356Z,24.03
2022-11-08T17:34:47.712Z,24.07
2022-11-08T17:37:16.968Z,22.10
2022-11-08T17:39:48.030Z,24.33
2022-11-08T17:42:16.988Z,21.03
2022-11-08T17:44:45.202Z,16.60
2022-11-08T17:47:14.950Z,24.57
2022-11-08T17:49:44.261Z,16.50
2022-11-08T17:52:12.664Z,17.80
2022-11-08T17:54:41.733Z,12.07
2022-11-08T17:57:10.238Z,15.10
2022-11-08T17:59:38.776Z,13.40
2022-11-08T18:02:07.451Z,18.93
2022-11-08T18:04:37.469Z,20.73
2022-11-08T18:07:05.710Z,14.87
2022-11-08T18:09:34.131Z,15.33
2022-11-08T18:12:02.374Z,17.13
2022-11-08T18:14:31.530Z,14.87
2022-11-08T18:17:01.851Z,14.63
2022-11-08T18:19:31.062Z,15.27
2022-11-08T18:22:00.997Z,14.47
2022-11-08T18:24:29.155Z,23.27
2022-11-08T18:26:57.291Z,18.77
2022-11-08T18:29:25.539Z,25.10
2022-11-08T18:31:53.672Z,22.57
2022-11-08T18:34:21.845Z,29.70
2022-11-08T18:36:50.160Z,26.70
2022-11-08T18:39:20.071Z,30.60
2022-11-08T18:41:48.239Z,28.43
2022-11-08T18:44:16.417Z,19.23
2022-11-08T18:46:44.521Z,26.03
2022-11-08T18:49:12.889Z,32.60
2022-11-08T18:51:41.310Z,20.77
2022-11-08T18:54:10.996Z,13.37
2022-11-08T18:56:40.482Z,14.80
2022-11-08T18:59:09.209Z,15.73
2022-11-08T19:01:37.642Z,12.50
2022-11-08T19:04:06.140Z,21.23
2022-11-08T19:06:34.387Z,18.83
2022-11-08T19:09:02.509Z,21.30
2022-11-08T19:11:30.742Z,21.50
2022-11-08T19:14:02.083Z,26.97
2022-11-08T19:16:30.305Z,22.10
2022-11-08T19:18:58.554Z,25.73
2022-11-08T19:21:28.551Z,19.43
2022-11-08T19:23:58.546Z,25.30
2022-11-08T19:26:28.679Z,18.20
2022-11-08T19:28:59.385Z,18.47
2022-11-08T19:31:27.857Z,20.57
2022-11-08T19:33:56.356Z,16.00
2022-11-08T19:36:26.679Z,16.40
2022-11-08T19:38:56.049Z,16.93
2022-11-08T19:41:25.718Z,17.03
2022-11-08T19:43:55.031Z,14.13
2022-11-08T19:46:26.917Z,23.30
2022-11-08T19:48:54.943Z,22.90
2022-11-08T19:51:25.232Z,22.30
2022-11-08T19:53:55.792Z,16.03
2022-11-08T19:56:43.384Z,13.70
2022-11-08T19:59:11.778Z,17.90
2022-11-08T20:01:41.379Z,24.50
2022-11-08T20:04:11.969Z,24.00
2022-11-08T20:06:40.791Z,22.60
2022-11-08T20:09:10.435Z,25.20
2022-11-08T20:11:40.745Z,18.23
2022-11-08T20:14:09.911Z,19.10
2022-11-08T20:16:42.078Z,18.53
2022-11-08T20:19:12.649Z,22.00
2022-11-08T20:21:42.501Z,17.07
2022-11-08T20:24:11.576Z,21.83
2022-11-08T20:26:41.481Z,21.73
2022-11-08T20:29:10.315Z,24.33
2022-11-08T20:31:42.410Z,18.00
2022-11-08T20:34:13.176Z,15.40
2022-11-08T20:36:44.056Z,18.17
2022-11-08T20:39:14.478Z,17.20
2022-11-08T20:41:43.172Z,10.37
2022-11-08T20:44:11.711Z,15.40
2022-11-08T20:46:41.315Z,17.60
2022-11-08T20:49:09.654Z,12.43
2022-11-08T20:51:38.451Z,12.60
2022-11-08T20:54:06.625Z,18.70
2022-11-08T20:56:34.847Z,19.77
2022-11-08T20:59:03.454Z,16.07
2022-11-08T21:01:34.325Z,19.63
2022-11-08T21:04:04.410Z,18.57
2022-11-08T21:06:35.932Z,14.87
2022-11-08T21:09:30.233Z,15.70
2022-11-08T21:11:54.081Z,16.23
2022-11-08T21:14:23.648Z,13.20
2022-11-08T21:17:21.252Z,14.37
2022-11-08T21:19:41.478Z,14.73
2022-11-08T21:22:18.863Z,15.73
2022-11-08T21:24:48.263Z,19.20
2022-11-08T21:27:17.463Z,17.83
2022-11-08T21:29:45.796Z,12.77
2022-11-08T21:32:13.899Z,18.20
2022-11-08T21:34:46.248Z,13.70
2022-11-08T21:37:15.213Z,16.33
2022-11-08T21:39:43.469Z,20.73
2022-11-08T21:42:11.631Z,17.73
2022-11-08T21:44:39.720Z,15.00
2022-11-08T21:47:07.804Z,13.97
2022-11-08T21:49:35.944Z,14.10
2022-11-08T21:52:05.899Z,15.60
2022-11-08T21:54:34.039Z,19.20
2022-11-08T21:57:02.220Z,13.83
2022-11-08T21:59:30.275Z,15.33
2022-11-08T22:01:58.438Z,22.17
2022-11-08T22:04:26.683Z,13.53
2022-11-08T22:06:55.325Z,12.17
2022-11-08T22:09:24.808Z,20.63
2022-11-08T22:11:53.172Z,12.90
2022-11-08T22:14:21.348Z,14.67
2022-11-08T22:16:49.695Z,19.83
2022-11-08T22:19:17.810Z,14.93
2022-11-08T22:21:47.524Z,16.27
2022-11-08T22:24:18.233Z,9.77
2022-11-08T22:26:48.567Z,24.00
2022-11-08T22:29:17.785Z,18.53
2022-11-08T22:31:46.318Z,11.53
2022-11-08T22:34:14.374Z,14.57
2022-11-08T22:36:46.035Z,15.47
2022-11-08T22:39:15.098Z,17.30
2022-11-08T22:41:43.779Z,13.53
2022-11-08T22:44:14.169Z,13.43
2022-11-08T22:46:42.746Z,11.93
2022-11-08T22:49:11.601Z,17.83
2022-11-08T22:51:40.093Z,16.87
2022-11-08T22:54:08.373Z,17.00
2022-11-08T22:56:37.031Z,16.77
2022-11-08T22:59:05.479Z,16.33
2022-11-08T23:01:35.300Z,16.13
2022-11-08T23:04:03.555Z,14.80
2022-11-08T23:06:31.855Z,14.40
2022-11-08T23:09:00.035Z,18.27
2022-11-08T23:11:45.493Z,12.77
2022-11-08T23:14:45.668Z,15.60
2022-11-08T23:17:15.158Z,12.37
2022-11-08T23:20:00.838Z,15.90
2022-11-08T23:22:46.455Z,12.23
2022-11-08T23:25:14.541Z,18.93
2022-11-08T23:28:00.261Z,12.93
2022-11-08T23:30:45.780Z,18.20
2022-11-08T23:33:15.283Z,11.30
2022-11-08T23:36:03.331Z,12.47
2022-11-08T23:38:31.407Z,25.37
2022-11-08T23:41:20.506Z,13.03
2022-11-08T23:44:06.038Z,14.27
2022-11-08T23:46:34.494Z,14.37
2022-11-08T23:49:04.411Z,12.60
2022-11-08T23:51:32.879Z,15.40
2022-11-08T23:54:02.671Z,15.37
2022-11-08T23:56:31.005Z,27.80
2022-11-08T23:59:00.910Z,14.53
